Time;durP1;ratioP1;P1;durP2;ratioP2;P2;SDS_P1;SDS_P2;PMS_P1;PMS_P2;Temp;Humidity;BMP_temperature;BMP_pressure;BME280_temperature;BME280_humidity;BME280_pressure;Samples;Min_cycle;Max_cycle;Signal;HPM_P1;HPM_P2
2023/12/01 00:01:05;;;;;;;28.40;11.07;;;;;;;0.05;100.00;100325.38;4994365;28;20026;-89
2023/12/01 00:03:30;;;;;;;30.13;10.73;;;;;;;0.07;100.00;100322.84;4995016;28;20026;-87
2023/12/01 00:05:56;;;;;;;27.33;10.70;;;;;;;0.05;100.00;100330.50;4992245;28;20079;-88
2023/12/01 00:08:21;;;;;;;31.50;11.17;;;;;;;0.05;100.00;100334.78;4968805;28;20057;-91
2023/12/01 00:10:46;;;;;;;31.63;11.53;;;;;;;0.04;100.00;100344.13;4993860;28;20029;-88
2023/12/01 00:13:12;;;;;;;29.87;10.80;;;;;;;0.03;100.00;100339.00;4976512;28;20524;-90
2023/12/01 00:15:37;;;;;;;32.90;11.63;;;;;;;-0.01;100.00;100341.53;4976897;28;20026;-89
2023/12/01 00:18:02;;;;;;;33.00;11.40;;;;;;;-0.05;100.00;100346.63;4993862;28;20033;-91
2023/12/01 00:20:28;;;;;;;35.67;13.10;;;;;;;-0.09;100.00;100342.31;4993098;28;20026;-85
2023/12/01 00:22:53;;;;;;;29.73;11.17;;;;;;;-0.13;100.00;100343.09;5003156;28;20032;-89
2023/12/01 00:25:19;;;;;;;33.00;11.77;;;;;;;-0.12;100.00;100348.25;4992736;28;20076;-92
2023/12/01 00:27:44;;;;;;;32.60;10.80;;;;;;;-0.11;100.00;100343.97;4987110;28;20037;-89
2023/12/01 00:30:10;;;;;;;35.10;11.97;;;;;;;-0.13;100.00;100345.66;4994223;28;20125;-87
2023/12/01 00:32:35;;;;;;;36.13;12.23;;;;;;;-0.16;100.00;100352.47;4997567;28;20044;-87
2023/12/01 00:35:01;;;;;;;29.93;10.80;;;;;;;-0.17;100.00;100349.91;4996752;28;20022;-87
2023/12/01 00:37:26;;;;;;;33.80;11.17;;;;;;;-0.17;100.00;100349.91;5004316;28;20041;-87
2023/12/01 00:39:52;;;;;;;36.27;11.67;;;;;;;-0.17;100.00;100349.91;4996260;28;20057;-87
2023/12/01 00:42:17;;;;;;;38.00;12.23;;;;;;;-0.17;100.00;100349.91;5002763;28;20465;-87
2023/12/01 00:44:45;;;;;;;31.53;11.07;;;;;;;-0.17;100.00;100353.28;5000115;28;20101;-87
2023/12/01 00:47:10;;;;;;;32.83;11.97;;;;;;;-0.18;100.00;100349.06;4988200;28;20036;-87
2023/12/01 00:49:35;;;;;;;33.57;11.73;;;;;;;-0.19;100.00;100357.56;4997169;28;20097;-87
2023/12/01 00:52:01;;;;;;;33.83;11.60;;;;;;;-0.21;100.00;100353.25;4997690;28;20026;-87
2023/12/01 00:54:26;;;;;;;36.60;12.07;;;;;;;-0.22;100.00;100364.31;4993125;28;20475;-87
2023/12/01 00:56:52;;;;;;;35.37;12.37;;;;;;;-0.23;100.00;100366.03;4998185;28;20053;-86
2023/12/01 00:59:17;;;;;;;32.93;11.60;;;;;;;-0.27;100.00;100369.38;4996030;28;20022;-87
2023/12/01 01:01:42;;;;;;;38.03;13.00;;;;;;;-0.30;100.00;100369.34;4995691;28;20026;-88
2023/12/01 01:04:08;;;;;;;39.13;13.33;;;;;;;-0.31;100.00;100367.63;4993050;28;20038;-87
2023/12/01 01:06:33;;;;;;;39.20;13.03;;;;;;;-0.34;100.00;100381.25;5001550;28;20048;-87
2023/12/01 01:08:58;;;;;;;40.07;12.10;;;;;;;-0.38;100.00;100376.94;4999284;28;20053;-87
2023/12/01 01:11:24;;;;;;;33.47;11.27;;;;;;;-0.36;100.00;100369.31;4996986;28;20030;-85
2023/12/01 01:13:49;;;;;;;34.63;11.43;;;;;;;-0.35;100.00;100373.56;5006887;28;20512;-89
2023/12/01 01:16:14;;;;;;;35.73;12.10;;;;;;;-0.34;100.00;100377.81;5001619;28;20108;-87
2023/12/01 01:18:40;;;;;;;33.47;11.50;;;;;;;-0.36;100.00;100374.41;5002290;28;20060;-90
2023/12/01 01:21:05;;;;;;;40.90;12.47;;;;;;;-0.42;100.00;100379.44;4995197;28;20045;-87
2023/12/01 01:23:30;;;;;;;32.50;11.23;;;;;;;-0.42;100.00;100380.28;4995622;28;20058;-87
2023/12/01 01:25:56;;;;;;;34.47;11.53;;;;;;;-0.40;100.00;100375.22;5000026;28;20033;-87
2023/12/01 01:28:21;;;;;;;33.33;11.03;;;;;;;-0.40;100.00;100377.75;4986840;28;20113;-84
2023/12/01 01:30:46;;;;;;;34.10;11.33;;;;;;;-0.38;100.00;100381.19;5035592;28;20037;-85
2023/12/01 01:33:12;;;;;;;33.23;11.47;;;;;;;-0.38;100.00;100381.19;5011021;28;20492;-88
2023/12/01 01:35:37;;;;;;;34.63;11.53;;;;;;;-0.42;100.00;100384.56;5022374;28;20030;-87
2023/12/01 01:38:02;;;;;;;35.90;11.30;;;;;;;-0.44;100.00;100379.44;5016207;28;20159;-88
2023/12/01 01:40:28;;;;;;;33.53;11.57;;;;;;;-0.42;100.00;100379.44;5014433;28;20142;-87
2023/12/01 01:42:53;;;;;;;31.80;11.00;;;;;;;-0.40;100.00;100391.38;5017374;28;20096;-87
2023/12/01 01:45:18;;;;;;;34.00;11.50;;;;;;;-0.39;100.00;100394.81;5027736;28;20049;-87
2023/12/01 01:47:44;;;;;;;33.57;11.83;;;;;;;-0.38;100.00;100392.28;5012378;28;20366;-90
2023/12/01 01:50:09;;;;;;;34.10;10.87;;;;;;;-0.38;100.00;100393.97;5009920;28;20482;-86
2023/12/01 01:52:37;;;;;;;32.13;11.53;;;;;;;-0.37;100.00;100395.69;5016331;28;20022;-87
2023/12/01 01:55:03;;;;;;;35.07;11.83;;;;;;;-0.37;100.00;100396.53;5023465;28;20389;-87
2023/12/01 01:57:33;;;;;;;30.83;11.17;;;;;;;-0.38;100.00;100399.94;4996714;28;20484;-86
2023/12/01 01:59:58;;;;;;;31.97;11.00;;;;;;;-0.39;100.00;100398.22;5012504;28;20026;-88
2023/12/01 02:02:24;;;;;;;31.67;11.17;;;;;;;-0.38;100.00;100401.66;5009025;28;20025;-88
2023/12/01 02:04:53;;;;;;;32.07;11.03;;;;;;;-0.37;100.00;100401.66;5026591;28;20033;-87
2023/12/01 02:07:25;;;;;;;34.40;11.03;;;;;;;-0.34;100.00;100408.50;5016769;28;20025;-88
2023/12/01 02:09:50;;;;;;;;;;;;;;;-0.33;100.00;100402.53;5015466;28;20062;-88
2023/12/01 02:12:15;;;;;;;34.73;11.37;;;;;;;-0.40;100.00;100405.88;5019461;28;19956;-88
2023/12/01 02:14:41;;;;;;;30.10;10.53;;;;;;;-0.40;100.00;100404.16;5019246;28;20022;-87
2023/12/01 02:17:06;;;;;;;33.50;11.03;;;;;;;-0.40;100.00;100408.44;5019322;28;20030;-88
2023/12/01 02:19:32;;;;;;;31.80;10.77;;;;;;;-0.39;100.00;100415.25;5014913;28;20496;-88
2023/12/01 02:21:57;;;;;;;36.27;12.07;;;;;;;-0.41;100.00;100415.22;5020821;28;20029;-88
2023/12/01 02:24:22;;;;;;;42.73;13.03;;;;;;;-0.44;100.00;100411.78;5010946;28;20437;-88
2023/12/01 02:26:48;;;;;;;34.93;11.87;;;;;;;-0.46;100.00;100406.66;5018616;28;20040;-88
2023/12/01 02:29:13;;;;;;;38.73;12.70;;;;;;;-0.47;100.00;100413.47;5014721;28;20053;-88
2023/12/01 02:31:38;;;;;;;35.13;11.57;;;;;;;-0.48;100.00;100421.97;5021927;28;20038;-88
2023/12/01 02:34:04;;;;;;;39.30;12.00;;;;;;;-0.48;100.00;100421.13;5008916;28;20030;-88
2023/12/01 02:36:29;;;;;;;41.20;12.93;;;;;;;-0.53;100.00;100423.63;5011453;28;20101;-90
2023/12/01 02:38:54;;;;;;;40.30;13.07;;;;;;;-0.57;100.00;100426.97;5010427;28;20087;-88
2023/12/01 02:41:20;;;;;;;42.87;13.87;;;;;;;-0.61;100.00;100420.09;5018308;28;20033;-88
2023/12/01 02:43:46;;;;;;;39.37;11.80;;;;;;;-0.61;100.00;100422.66;5023423;28;20485;-89
2023/12/01 02:46:12;;;;;;;39.87;13.10;;;;;;;-0.61;100.00;100420.09;5021717;28;20048;-88
2023/12/01 02:48:40;;;;;;;42.67;13.13;;;;;;;-0.60;100.00;100421.81;5012344;28;20032;-88
2023/12/01 02:51:07;;;;;;;46.13;13.43;;;;;;;-0.61;100.00;100422.66;4998339;28;20060;-88
2023/12/01 02:53:33;;;;;;;43.43;12.43;;;;;;;-0.62;100.00;100420.94;5018400;28;20018;-88
2023/12/01 02:55:59;;;;;;;46.17;13.53;;;;;;;-0.63;100.00;100416.66;5011618;28;20026;-87
2023/12/01 02:58:24;;;;;;;41.40;11.87;;;;;;;-0.67;100.00;100417.44;5009357;28;20030;-88
2023/12/01 03:00:50;;;;;;;44.80;12.43;;;;;;;-0.72;100.00;100421.66;5012976;28;20481;-89
2023/12/01 03:03:15;;;;;;;43.83;12.63;;;;;;;-0.73;100.00;100419.94;5019345;28;20022;-88
2023/12/01 03:05:41;;;;;;;39.80;12.03;;;;;;;-0.74;100.00;100423.31;5010257;28;20048;-90
2023/12/01 03:08:06;;;;;;;39.53;10.80;;;;;;;-0.75;100.00;100422.44;5018710;28;20030;-90
2023/12/01 03:10:32;;;;;;;41.17;11.17;;;;;;;-0.81;100.00;100424.94;5009014;28;20488;-88
2023/12/01 03:12:57;;;;;;;38.33;11.00;;;;;;;-0.82;100.00;100416.41;5013086;28;20438;-88
2023/12/01 03:15:24;;;;;;;40.37;11.20;;;;;;;-0.80;100.00;100417.28;5014326;28;20125;-88
2023/12/01 03:17:49;;;;;;;36.70;11.30;;;;;;;-0.80;100.00;100422.41;5009316;28;20112;-88
2023/12/01 03:20:15;;;;;;;36.93;11.67;;;;;;;-0.80;100.00;100419.84;5021743;28;20105;-87
2023/12/01 03:22:43;;;;;;;40.43;12.13;;;;;;;-0.82;100.00;100424.06;4998651;28;20021;-89
2023/12/01 03:25:11;;;;;;;37.97;12.50;;;;;;;-0.83;100.00;100424.06;5010807;28;20358;-87
2023/12/01 03:27:41;;;;;;;38.80;11.30;;;;;;;-0.85;100.00;100421.47;5012311;28;20137;-88
2023/12/01 03:30:13;;;;;;;38.93;11.00;;;;;;;-0.84;100.00;100422.34;4999119;28;20464;-89
2023/12/01 03:32:44;;;;;;;41.93;12.50;;;;;;;-0.82;100.00;100426.63;5014608;28;20025;-88
2023/12/01 03:35:11;;;;;;;39.40;11.20;;;;;;;-0.80;100.00;100424.94;5007787;28;20466;-89
2023/12/01 03:37:36;;;;;;;38.83;11.70;;;;;;;-0.79;100.00;100436.88;5016730;28;20449;-87
2023/12/01 03:40:01;;;;;;;38.63;11.23;;;;;;;-0.77;100.00;100435.22;5014525;28;20588;-88
2023/12/01 03:42:27;;;;;;;40.60;10.90;;;;;;;-0.77;100.00;100440.31;5012570;28;20457;-88
2023/12/01 03:44:52;;;;;;;40.53;11.53;;;;;;;-0.75;100.00;100439.50;5016772;28;20037;-88
2023/12/01 03:47:18;;;;;;;43.90;12.20;;;;;;;-0.75;100.00;100436.94;5016882;28;20444;-89
2023/12/01 03:49:43;;;;;;;36.80;11.47;;;;;;;-0.77;100.00;100430.09;5014731;28;20481;-88
2023/12/01 03:52:09;;;;;;;43.53;13.67;;;;;;;-0.74;100.00;100431.00;4998208;28;20022;-89
2023/12/01 03:54:34;;;;;;;46.77;14.03;;;;;;;-0.82;100.00;100436.00;5016779;28;20022;-89
2023/12/01 03:57:00;;;;;;;45.40;12.97;;;;;;;-0.85;100.00;100435.94;5014592;28;20108;-88
2023/12/01 03:59:25;;;;;;;40.70;11.30;;;;;;;-0.88;100.00;100446.97;5012994;28;20049;-89
2023/12/01 04:01:50;;;;;;;41.87;13.43;;;;;;;-0.88;100.00;100436.75;5017782;28;20014;-88
2023/12/01 04:04:16;;;;;;;40.37;12.33;;;;;;;-0.85;100.00;100441.88;5001643;28;20373;-89
2023/12/01 04:06:42;;;;;;;39.43;12.67;;;;;;;-0.84;100.00;100435.09;4999256;28;20182;-88
2023/12/01 04:09:09;;;;;;;40.57;11.83;;;;;;;-0.78;100.00;100447.97;5017730;28;20057;-89
2023/12/01 04:11:36;;;;;;;35.87;10.60;;;;;;;-0.78;100.00;100448.81;5006147;28;20382;-89
2023/12/01 04:14:03;;;;;;;41.33;12.70;;;;;;;-0.75;100.00;100442.03;5016464;28;20033;-89
2023/12/01 04:16:32;;;;;;;42.53;13.00;;;;;;;-0.74;100.00;100443.75;4991262;28;20049;-88
2023/12/01 04:18:57;;;;;;;40.00;11.23;;;;;;;-0.72;100.00;100448.03;5009119;28;20381;-89
2023/12/01 04:21:22;;;;;;;47.50;13.53;;;;;;;-0.71;100.00;100444.66;5020745;28;20133;-88
2023/12/01 04:23:48;;;;;;;41.10;12.43;;;;;;;-0.69;100.00;100455.75;5016024;28;20037;-89
2023/12/01 04:26:13;;;;;;;46.20;12.87;;;;;;;-0.65;100.00;100456.66;5014893;28;20045;-89
2023/12/01 04:28:39;;;;;;;48.17;13.40;;;;;;;-0.65;100.00;100457.53;5019155;28;20029;-89
2023/12/01 04:31:05;;;;;;;45.67;13.43;;;;;;;-0.62;100.00;100460.13;5020620;28;20042;-88
2023/12/01 04:33:31;;;;;;;44.33;13.00;;;;;;;-0.61;100.00;100460.97;5009028;28;20044;-87
2023/12/01 04:35:56;;;;;;;43.80;13.47;;;;;;;-0.64;100.00;100471.13;5022049;28;20029;-88
2023/12/01 04:38:21;;;;;;;40.40;12.63;;;;;;;-0.68;100.00;100471.94;5033471;28;20017;-87
2023/12/01 04:40:47;;;;;;;41.20;13.43;;;;;;;-0.74;100.00;100474.41;5031307;28;20046;-85
2023/12/01 04:43:12;;;;;;;39.03;13.03;;;;;;;-0.78;100.00;100478.63;5024528;28;20023;-87
2023/12/01 04:45:37;;;;;;;35.47;12.17;;;;;;;-0.80;100.00;100477.75;5008556;28;20079;-88
2023/12/01 04:48:03;;;;;;;36.20;12.47;;;;;;;-0.79;100.00;100476.91;5024005;28;20033;-88
2023/12/01 04:50:30;;;;;;;41.33;13.90;;;;;;;-0.77;100.00;100485.44;5019506;28;20498;-88
2023/12/01 04:53:00;;;;;;;34.77;12.47;;;;;;;-0.77;100.00;100488.00;5019247;28;20063;-89
2023/12/01 04:55:27;;;;;;;35.93;12.17;;;;;;;-0.75;100.00;100486.31;5016366;28;20025;-89
2023/12/01 04:57:58;;;;;;;38.77;11.97;;;;;;;-0.72;100.00;100488.06;5017015;28;20040;-89
2023/12/01 05:00:25;;;;;;;36.70;12.47;;;;;;;-0.70;100.00;100492.34;5025768;28;20482;-89
2023/12/01 05:02:56;;;;;;;36.70;12.13;;;;;;;-0.67;100.00;100492.41;5008452;28;20039;-88
2023/12/01 05:05:26;;;;;;;34.00;11.73;;;;;;;-0.63;100.00;100490.75;5014418;28;20033;-88
2023/12/01 05:07:57;;;;;;;31.90;11.60;;;;;;;-0.62;100.00;100485.69;5018954;28;20767;-88
2023/12/01 05:10:24;;;;;;;31.70;10.40;;;;;;;-0.59;100.00;100500.19;5015917;28;20133;-89
2023/12/01 05:12:51;;;;;;;31.57;10.87;;;;;;;-0.59;100.00;100495.06;5020030;28;20034;-89
2023/12/01 05:15:18;;;;;;;31.00;11.40;;;;;;;-0.59;100.00;100499.31;5015062;28;20041;-88
2023/12/01 05:17:45;;;;;;;32.90;11.30;;;;;;;-0.60;100.00;100508.69;5009995;28;20176;-88
2023/12/01 05:20:15;;;;;;;32.97;10.97;;;;;;;-0.59;100.00;100510.41;5008958;28;20025;-88
2023/12/01 05:22:44;;;;;;;32.40;11.73;;;;;;;-0.60;100.00;100511.22;5011178;28;20181;-88
2023/12/01 05:25:15;;;;;;;34.57;11.33;;;;;;;-0.60;100.00;100513.78;5006095;28;20101;-88
2023/12/01 05:27:46;;;;;;;29.55;10.30;;;;;;;-0.59;100.00;100517.19;5020592;28;20032;-88
2023/12/01 05:30:12;;;;;;;32.30;11.83;;;;;;;-0.60;100.00;100518.91;5010878;28;20203;-89
2023/12/01 05:32:42;;;;;;;31.43;11.63;;;;;;;-0.64;100.00;100518.00;5012227;28;20096;-89
2023/12/01 05:35:10;;;;;;;31.27;11.27;;;;;;;-0.65;100.00;100525.63;5010463;28;20053;-89
2023/12/01 05:37:48;;;;;;;34.67;12.33;;;;;;;-0.66;100.00;100529.00;5027394;28;20017;-89
2023/12/01 05:40:22;;;;;;;36.47;12.27;;;;;;;-0.66;100.00;100529.88;5020791;28;20041;-88
2023/12/01 05:42:49;;;;;;;29.53;10.87;;;;;;;-0.67;100.00;100528.16;5013758;28;20018;-89
2023/12/01 05:45:16;;;;;;;31.53;10.23;;;;;;;-0.66;100.00;100536.69;5020008;28;20465;-88
2023/12/01 05:47:42;;;;;;;31.90;11.20;;;;;;;-0.67;100.00;100535.84;5018806;28;20034;-88
2023/12/01 05:50:27;;;;;;;31.17;11.03;;;;;;;-0.65;100.00;100539.28;5022631;28;20021;-88
2023/12/01 05:52:55;;;;;;;32.20;11.53;;;;;;;-0.64;100.00;100537.56;5017305;28;20503;-88
2023/12/01 05:55:23;;;;;;;31.60;10.73;;;;;;;-0.63;100.00;100539.28;4998312;28;20349;-88
2023/12/01 05:57:53;;;;;;;27.07;9.97;;;;;;;-0.60;100.00;100539.34;5009698;28;20076;-89
2023/12/01 06:00:22;;;;;;;31.13;11.40;;;;;;;-0.58;100.00;100540.22;5006603;28;20021;-88
2023/12/01 06:02:49;;;;;;;32.43;11.23;;;;;;;-0.56;100.00;100545.34;5013993;28;20018;-88
2023/12/01 06:05:15;;;;;;;31.93;10.97;;;;;;;-0.58;100.00;100544.47;5012259;28;20029;-88
2023/12/01 06:07:43;;;;;;;31.83;11.00;;;;;;;-0.57;100.00;100543.63;4992788;28;20132;-88
2023/12/01 06:10:10;;;;;;;33.50;11.90;;;;;;;-0.58;100.00;100542.78;5007588;28;20052;-88
2023/12/01 06:12:37;;;;;;;29.30;11.13;;;;;;;-0.58;100.00;100542.78;5010933;28;20054;-88
2023/12/01 06:15:05;;;;;;;32.73;11.47;;;;;;;-0.56;100.00;100545.34;4993907;28;20548;-89
2023/12/01 06:17:30;;;;;;;30.80;10.87;;;;;;;-0.54;100.00;100539.44;5012931;28;20076;-88
2023/12/01 06:19:56;;;;;;;30.57;11.20;;;;;;;-0.51;100.00;100534.34;5007953;28;20076;-88
2023/12/01 06:22:22;;;;;;;30.10;9.97;;;;;;;-0.48;99.98;100542.06;5010305;28;20076;-88
2023/12/01 06:24:47;;;;;;;28.53;11.13;;;;;;;-0.48;99.96;100536.97;5014429;28;20538;-88
2023/12/01 06:27:13;;;;;;;31.87;10.73;;;;;;;-0.44;100.00;100549.78;5015640;28;20083;-88
2023/12/01 06:29:38;;;;;;;27.90;10.23;;;;;;;-0.40;100.00;100549.84;5010225;28;20514;-91
2023/12/01 06:32:04;;;;;;;30.67;10.50;;;;;;;-0.39;100.00;100549.00;5014879;28;20056;-92
2023/12/01 06:34:29;;;;;;;31.47;11.03;;;;;;;-0.40;100.00;100544.72;5013743;28;20200;-91
2023/12/01 06:36:58;;;;;;;28.67;10.07;;;;;;;-0.41;100.00;100544.72;5010304;28;20026;-90
2023/12/01 06:39:25;;;;;;;28.43;10.27;;;;;;;-0.40;100.00;100551.56;5003667;28;20036;-90
2023/12/01 06:41:52;;;;;;;30.03;10.57;;;;;;;-0.40;100.00;100551.56;5018664;28;20477;-86
2023/12/01 06:44:17;;;;;;;28.57;10.50;;;;;;;-0.43;99.88;100548.94;5019413;28;20017;-86
2023/12/01 06:46:42;;;;;;;28.20;10.33;;;;;;;-0.43;99.98;100548.94;5010954;28;20105;-88
2023/12/01 06:49:08;;;;;;;30.07;10.30;;;;;;;-0.40;100.00;100549.00;5022327;28;20362;-87
2023/12/01 06:51:33;;;;;;;28.70;9.93;;;;;;;-0.38;100.00;100549.88;5002592;28;20017;-87
2023/12/01 06:53:58;;;;;;;32.73;10.63;;;;;;;-0.39;100.00;100548.16;5016374;28;20104;-86
2023/12/01 06:56:24;;;;;;;27.53;9.60;;;;;;;-0.37;100.00;100552.44;5016804;28;20037;-86
2023/12/01 06:58:49;;;;;;;27.93;10.50;;;;;;;-0.36;100.00;100559.28;5023014;28;20029;-86
2023/12/01 07:01:18;;;;;;;26.67;9.40;;;;;;;-0.36;100.00;100564.41;4992367;28;20089;-86
2023/12/01 07:03:45;;;;;;;28.30;10.83;;;;;;;-0.34;100.00;100559.28;5015160;28;20025;-85
2023/12/01 07:06:11;;;;;;;25.67;9.33;;;;;;;-0.31;100.00;100570.44;5026752;28;20013;-86
2023/12/01 07:08:36;;;;;;;31.73;10.00;;;;;;;-0.31;100.00;100567.00;5018998;28;20666;-86
2023/12/01 07:11:03;;;;;;;25.17;9.17;;;;;;;-0.30;100.00;100573.84;5011365;28;20418;-86
2023/12/01 07:13:29;;;;;;;25.60;9.40;;;;;;;-0.30;100.00;100571.28;5012236;28;20026;-86
2023/12/01 07:15:58;;;;;;;28.60;9.37;;;;;;;-0.31;100.00;100587.47;5010244;28;20065;-86
2023/12/01 07:18:23;;;;;;;29.20;10.27;;;;;;;-0.30;100.00;100589.19;5010782;28;20598;-86
2023/12/01 07:20:49;;;;;;;27.23;9.00;;;;;;;-0.32;100.00;100590.84;5009806;28;20053;-86
2023/12/01 07:23:17;;;;;;;27.30;9.30;;;;;;;-0.32;100.00;100585.75;4992143;28;20473;-86
2023/12/01 07:25:47;;;;;;;24.63;8.83;;;;;;;-0.29;100.00;100592.63;4991878;28;20028;-86
2023/12/01 07:28:13;;;;;;;24.83;8.90;;;;;;;-0.29;100.00;100590.91;4994015;28;20029;-86
2023/12/01 07:30:40;;;;;;;25.57;9.83;;;;;;;-0.28;100.00;100592.63;5007217;28;20069;-86
2023/12/01 07:33:06;;;;;;;27.33;9.70;;;;;;;-0.28;100.00;100592.63;4998637;28;20014;-86
2023/12/01 07:35:31;;;;;;;29.70;9.93;;;;;;;-0.26;100.00;100590.94;5006851;28;20030;-86
2023/12/01 07:37:57;;;;;;;26.77;9.73;;;;;;;-0.24;100.00;100594.41;5008986;28;20426;-86
2023/12/01 07:40:23;;;;;;;24.73;9.13;;;;;;;-0.22;100.00;100599.53;5009148;28;20052;-86
2023/12/01 07:42:50;;;;;;;25.90;9.03;;;;;;;-0.21;100.00;100593.56;4996533;28;20102;-86
2023/12/01 07:45:19;;;;;;;28.60;10.30;;;;;;;-0.22;100.00;100600.41;4992805;28;20030;-86
2023/12/01 07:47:45;;;;;;;27.23;9.80;;;;;;;-0.26;100.00;100601.19;4994137;28;20034;-86
2023/12/01 07:50:10;;;;;;;28.27;9.60;;;;;;;-0.25;100.00;100604.56;5013757;28;20030;-86
2023/12/01 07:52:36;;;;;;;26.83;9.60;;;;;;;-0.24;100.00;100604.63;5004634;28;20029;-86
2023/12/01 07:55:01;;;;;;;26.20;9.20;;;;;;;-0.23;100.00;100593.56;4998681;28;20529;-86
2023/12/01 07:57:26;;;;;;;26.23;8.97;;;;;;;-0.21;100.00;100589.34;4994093;28;20862;-85
2023/12/01 07:59:52;;;;;;;25.63;8.73;;;;;;;-0.21;100.00;100586.78;5008212;28;20060;-86
2023/12/01 08:02:17;;;;;;;25.40;8.90;;;;;;;-0.20;100.00;100595.28;5008616;28;20437;-86
2023/12/01 08:04:42;;;;;;;24.20;8.23;;;;;;;-0.19;100.00;100587.66;5009293;28;20481;-86
2023/12/01 08:07:08;;;;;;;23.07;8.23;;;;;;;-0.20;100.00;100595.28;5009600;28;20053;-86
2023/12/01 08:09:33;;;;;;;25.83;9.20;;;;;;;-0.20;100.00;100596.16;4996816;28;20032;-86
2023/12/01 08:11:59;;;;;;;21.53;7.80;;;;;;;-0.18;100.00;100598.72;5014229;28;20026;-86
2023/12/01 08:14:25;;;;;;;23.70;8.47;;;;;;;-0.18;100.00;100591.94;5011023;28;20021;-86
2023/12/01 08:16:51;;;;;;;25.57;8.77;;;;;;;-0.17;100.00;100591.06;5006431;28;20105;-86
2023/12/01 08:19:17;;;;;;;20.33;7.47;;;;;;;-0.15;100.00;100606.44;5013011;28;20032;-86
2023/12/01 08:21:43;;;;;;;20.50;7.83;;;;;;;-0.18;100.00;100607.28;5015652;28;20030;-86
2023/12/01 08:24:10;;;;;;;19.30;7.77;;;;;;;-0.18;100.00;100609.84;5011990;28;20080;-86
2023/12/01 08:26:35;;;;;;;17.53;6.70;;;;;;;-0.15;100.00;100611.56;5015401;28;20025;-86
2023/12/01 08:29:01;;;;;;;20.73;7.53;;;;;;;-0.15;100.00;100609.00;5008869;28;20033;-86
2023/12/01 08:31:26;;;;;;;20.57;7.67;;;;;;;-0.17;100.00;100621.75;4993552;28;20125;-86
2023/12/01 08:33:52;;;;;;;18.90;7.43;;;;;;;-0.16;100.00;100612.41;4984968;28;20029;-86
2023/12/01 08:36:18;;;;;;;20.57;7.20;;;;;;;-0.16;100.00;100618.38;4990684;28;20037;-86
2023/12/01 08:38:43;;;;;;;18.07;7.23;;;;;;;-0.17;100.00;100629.44;4992706;28;20053;-86
2023/12/01 08:41:09;;;;;;;18.20;7.30;;;;;;;-0.18;99.80;100624.31;5000374;28;20498;-86
2023/12/01 08:43:34;;;;;;;18.53;7.07;;;;;;;-0.18;100.00;100632.84;4994265;28;20394;-86
2023/12/01 08:46:00;;;;;;;18.73;7.30;;;;;;;-0.17;99.50;100631.97;4972412;28;20505;-86
2023/12/01 08:48:25;;;;;;;16.33;6.97;;;;;;;-0.17;99.58;100642.22;4976885;28;20482;-86
2023/12/01 08:50:50;;;;;;;18.53;7.20;;;;;;;-0.16;99.31;100636.25;4993595;28;20021;-87
2023/12/01 08:53:16;;;;;;;21.57;7.70;;;;;;;-0.16;99.47;100641.38;4974279;28;20373;-86
2023/12/01 08:55:41;;;;;;;20.47;7.70;;;;;;;-0.13;99.45;100643.13;4990992;28;20030;-87
2023/12/01 08:58:06;;;;;;;20.87;8.17;;;;;;;-0.12;99.19;100638.88;4991644;28;20026;-87
2023/12/01 09:00:32;;;;;;;19.27;7.90;;;;;;;-0.14;98.56;100641.41;4987496;28;20541;-87
2023/12/01 09:02:57;;;;;;;17.47;7.40;;;;;;;-0.12;98.76;100634.63;4999114;28;20064;-85
2023/12/01 09:05:24;;;;;;;17.97;6.97;;;;;;;-0.11;98.89;100641.47;5016432;28;20023;-85
2023/12/01 09:07:49;;;;;;;17.20;7.17;;;;;;;-0.09;98.99;100638.91;5016102;28;20074;-86
2023/12/01 09:10:15;;;;;;;19.50;7.73;;;;;;;-0.06;98.91;100646.63;5008525;28;20060;-87
2023/12/01 09:12:42;;;;;;;18.43;7.07;;;;;;;-0.06;98.39;100644.09;4992808;28;20041;-87
2023/12/01 09:15:08;;;;;;;20.60;7.23;;;;;;;-0.05;97.94;100646.66;4995004;28;20021;-87
2023/12/01 09:17:33;;;;;;;19.07;7.57;;;;;;;-0.07;98.16;100648.31;5001804;28;20045;-86
2023/12/01 09:19:59;;;;;;;18.63;7.20;;;;;;;-0.09;98.30;100650.03;4993660;28;20432;-93
2023/12/01 09:22:25;;;;;;;19.57;8.20;;;;;;;-0.09;97.93;100656.81;4990175;28;20225;-90
2023/12/01 09:24:50;;;;;;;18.70;7.17;;;;;;;-0.06;97.96;100659.44;4991632;28;20033;-90
2023/12/01 09:27:15;;;;;;;18.60;7.20;;;;;;;-0.05;98.05;100666.25;4993140;28;20018;-93
2023/12/01 09:29:41;;;;;;;17.13;6.77;;;;;;;-0.02;97.75;100671.44;4979312;28;20074;-92
2023/12/01 09:32:06;;;;;;;18.87;7.00;;;;;;;-0.01;97.49;100678.25;4971887;28;20061;-88
2023/12/01 09:34:31;;;;;;;20.13;7.27;;;;;;;0.01;97.56;100676.56;4989476;28;20018;-88
2023/12/01 09:36:57;;;;;;;20.57;7.57;;;;;;;0.04;97.57;100676.63;4986495;28;20029;-94
2023/12/01 09:39:22;;;;;;;16.90;6.67;;;;;;;0.07;98.06;100675.81;4973708;28;20265;-89
2023/12/01 09:41:50;;;;;;;17.27;6.63;;;;;;;0.09;97.37;100674.13;4972028;28;20054;-93
2023/12/01 09:44:16;;;;;;;17.73;6.80;;;;;;;0.09;96.93;100674.13;4993868;28;20240;-92
2023/12/01 09:46:43;;;;;;;17.67;6.93;;;;;;;0.11;97.07;100680.13;4994534;28;20360;-92
2023/12/01 09:49:10;;;;;;;18.50;7.27;;;;;;;0.10;96.38;100681.84;4997128;28;20482;-92
2023/12/01 09:51:36;;;;;;;17.30;6.47;;;;;;;0.08;96.51;100693.72;4990370;28;20025;-88
2023/12/01 09:54:03;;;;;;;16.83;6.83;;;;;;;0.10;96.81;100696.31;4987650;28;20034;-91
2023/12/01 09:56:29;;;;;;;17.47;6.57;;;;;;;0.10;96.12;100697.19;4985726;28;20037;-91
2023/12/01 09:58:58;;;;;;;17.40;6.40;;;;;;;0.16;96.32;100695.56;4992318;28;20034;-89
2023/12/01 10:01:25;;;;;;;15.63;6.17;;;;;;;0.19;96.39;100690.47;4973217;28;20034;-88
2023/12/01 10:03:50;;;;;;;16.07;6.53;;;;;;;0.19;96.27;100690.47;4987792;28;20042;-88
2023/12/01 10:06:17;;;;;;;17.70;7.27;;;;;;;0.20;96.41;100694.75;4993002;28;20505;-88
2023/12/01 10:08:42;;;;;;;15.67;6.57;;;;;;;0.20;95.64;100699.84;4999961;28;20526;-88
2023/12/01 10:11:22;;;;;;;16.43;6.73;;;;;;;0.19;95.44;100695.56;5001219;28;20026;-89
2023/12/01 10:13:49;;;;;;;18.73;6.63;;;;;;;0.20;95.83;100692.19;4970594;28;20034;-89
2023/12/01 10:16:15;;;;;;;17.83;7.13;;;;;;;0.24;95.69;100692.28;4967810;28;20490;-87
2023/12/01 10:18:59;;;;;;;19.50;6.70;;;;;;;0.27;96.11;100694.00;4970601;28;20048;-89
2023/12/01 10:21:47;;;;;;;16.73;6.77;;;;;;;0.27;95.39;100694.00;4996384;28;20778;-87
2023/12/01 10:24:22;;;;;;;17.37;6.50;;;;;;;0.27;95.41;100697.41;4995964;28;20052;-89
2023/12/01 10:26:51;;;;;;;18.67;6.93;;;;;;;0.27;95.24;100692.28;4997400;28;20041;-86
2023/12/01 10:29:23;;;;;;;18.53;6.90;;;;;;;0.28;94.77;100696.56;5000213;28;20054;-89
2023/12/01 10:31:49;;;;;;;16.77;7.00;;;;;;;0.26;94.99;100685.44;5011385;28;20037;-87
2023/12/01 10:34:14;;;;;;;17.00;7.27;;;;;;;0.29;95.84;100687.22;4997280;28;20162;-87
2023/12/01 10:36:40;;;;;;;14.73;6.20;;;;;;;0.33;95.92;100688.97;5012830;28;20051;-88
2023/12/01 10:39:07;;;;;;;17.10;6.73;;;;;;;0.38;95.69;100697.56;5009153;28;20028;-86
2023/12/01 10:41:33;;;;;;;18.77;7.20;;;;;;;0.38;95.20;100699.28;5012667;28;20045;-90
2023/12/01 10:43:59;;;;;;;18.00;6.43;;;;;;;0.36;95.30;100694.13;4989138;28;20045;-88
2023/12/01 10:46:26;;;;;;;19.13;7.00;;;;;;;0.38;96.14;100691.59;5007582;28;20604;-87
2023/12/01 10:48:52;;;;;;;17.10;6.37;;;;;;;0.42;95.80;100688.25;5005644;28;20108;-88
2023/12/01 10:51:18;;;;;;;15.03;6.30;;;;;;;0.43;95.98;100680.59;4990354;28;20017;-88
2023/12/01 10:53:44;;;;;;;19.27;6.77;;;;;;;0.42;95.50;100683.97;4993297;28;20527;-90
2023/12/01 10:56:16;;;;;;;19.67;7.30;;;;;;;0.38;94.62;100692.44;5004036;28;20034;-88
2023/12/01 10:58:45;;;;;;;19.40;7.63;;;;;;;0.37;95.19;100680.50;5005755;28;21369;-90
2023/12/01 11:01:10;;;;;;;17.23;7.13;;;;;;;0.34;94.27;100690.72;5001647;28;20080;-89
2023/12/01 11:03:40;;;;;;;18.93;7.83;;;;;;;0.33;93.88;100694.09;5007591;28;20053;-88